Main page
METAR-TAF:

METAR-TAF

Airports :

Tiree Airport

Tiree, Scotland

latitude: 56-30N, longitude: 006-53W, elevation: 12 m

Current weather observation

The report was made 8 hours and 30 minutes ago, at 17:50 UTC
Wind 22 kt from the Southwest
Temperature 10°C
Humidity 93%
Pressure 1021 hPa
Visibility: 9000 m
Overcast at a height of 600 ft

METAR: EGPU 201750Z 23022KT 9000 OVC006 10/09 Q1021

Time: 02:20 (02:20 UTC)

Forecast

The report was made 8 hours and 21 minutes ago, at 17:59 UTC
Forecast valid from 20 at 17 UTC to 20 at 19 UTC
Wind 22 kt from the Southwest
Visibility 10 km or more
Broken clouds at a height of 800 ft
Temporary
from 20 at 17 UTC to 20 at 19 UTC
Wind 25 kt from the Southwest with gusts up to 35 kt
Visibility: 4000 m
Overcast at a height of 300 ft
rain, mist
Probability 40% :
Temporary
from 20 at 17 UTC to 20 at 19 UTC
Visibility: 0800 m
fog

TAF: EGPU 201759Z 2017/2019 22022KT 9999 BKN008 TEMPO 2017/2019 23025G35KT 4000 RA BR OVC003 PROB40 TEMPO 2017/2019 0800 FG VV///

Weather observations and forecasts of more than 4000 airports (METAR and TAF reports).

The available stations are represented by yellow and red dots on the map.

Hover mouse over dot to see the name of the station.

Then click to see weather observations and forecasts.

To change the map : click on the green buttons with a black cross to zoom in, on the green button with a dash to zoom out, or on the green arrows for adjacent maps.


METAR-TAF: